Time;durP1;ratioP1;P1;durP2;ratioP2;P2;SDS_P1;SDS_P2;PMS_P1;PMS_P2;Temp;Humidity;BMP_temperature;BMP_pressure;BME280_temperature;BME280_humidity;BME280_pressure;Samples;Min_cycle;Max_cycle;Signal;HPM_P1;HPM_P2
2023/01/05 00:00:27;;;;;;;;;;;;;;;8.86;100;101569.5;;;;-72
2023/01/05 00:05:27;;;;;;;;;;;;;;;8.85;100;101562.8;;;;-73
2023/01/05 00:25:28;;;;;;;;;;;;;;;8.77;100;101562.1;;;;-74
2023/01/05 00:27:20;;;;;;;19.3;3.1;;;;;;;;;;;;;-74
2023/01/05 00:30:28;;;;;;;;;;;;;;;8.76;100;101562.8;;;;-73
2023/01/05 00:35:27;;;;;;;;;;;;;;;8.73;100;101567.1;;;;-74
2023/01/05 00:40:27;;;;;;;;;;;;;;;8.7;100;101568.4;;;;-73
2023/01/05 00:45:27;;;;;;;;;;;;;;;8.67;100;101579.5;;;;-73
2023/01/05 00:50:27;;;;;;;;;;;;;;;8.64;100;101579;;;;-73
2023/01/05 00:55:27;;;;;;;;;;;;;;;8.61;100;101590.1;;;;-73
2023/01/05 00:57:20;;;;;;;23;3.2;;;;;;;;;;;;;-72
2023/01/05 01:00:27;;;;;;;;;;;;;;;8.59;100;101588.6;;;;-72
2023/01/05 01:05:27;;;;;;;;;;;;;;;8.6;100;101593.8;;;;-74
2023/01/05 01:10:28;;;;;;;;;;;;;;;8.59;100;101600.2;;;;-73
2023/01/05 01:15:27;;;;;;;;;;;;;;;8.58;100;101604.2;;;;-73
2023/01/05 01:20:27;;;;;;;;;;;;;;;8.57;100;101605.4;;;;-73
2023/01/05 01:25:27;;;;;;;;;;;;;;;8.57;100;101607.6;;;;-72
2023/01/05 01:27:20;;;;;;;28.2;3.3;;;;;;;;;;;;;-73
2023/01/05 01:30:27;;;;;;;;;;;;;;;8.59;100;101615.8;;;;-73
2023/01/05 01:35:27;;;;;;;;;;;;;;;8.62;100;101624.7;;;;-75
2023/01/05 01:40:27;;;;;;;;;;;;;;;8.64;100;101627.3;;;;-74
2023/01/05 01:45:28;;;;;;;;;;;;;;;8.64;100;101636.2;;;;-73
2023/01/05 01:50:30;;;;;;;;;;;;;;;8.66;100;101629.8;;;;-74
2023/01/05 01:55:28;;;;;;;;;;;;;;;8.69;100;101638;;;;-73
2023/01/05 01:57:20;;;;;;;20.1;3.2;;;;;;;;;;;;;-73
2023/01/05 02:00:27;;;;;;;;;;;;;;;8.71;100;101641.3;;;;-74
2023/01/05 02:05:30;;;;;;;;;;;;;;;8.72;100;101645.5;;;;-73
2023/01/05 02:10:30;;;;;;;;;;;;;;;8.72;100;101648.9;;;;-73
2023/01/05 02:15:35;;;;;;;;;;;;;;;8.73;100;101656.6;;;;-73
2023/01/05 02:20:50;;;;;;;;;;;;;;;8.73;100;101648.2;;;;-73
2023/01/05 02:25:41;;;;;;;;;;;;;;;8.75;100;101654.5;;;;-73
2023/01/05 02:27:30;;;;;;;24.5;3.1;;;;;;;;;;;;;-73
2023/01/05 02:30:36;;;;;;;;;;;;;;;8.78;100;101651.7;;;;-73
2023/01/05 02:35:30;;;;;;;;;;;;;;;8.79;100;101660.8;;;;-73
2023/01/05 02:40:29;;;;;;;;;;;;;;;8.79;100;101665.5;;;;-73
2023/01/05 02:45:28;;;;;;;;;;;;;;;8.79;100;101661;;;;-73
2023/01/05 02:50:32;;;;;;;;;;;;;;;8.8;100;101652;;;;-74
2023/01/05 02:55:31;;;;;;;;;;;;;;;8.79;100;101663.4;;;;-73
2023/01/05 02:57:45;;;;;;;17.9;2.8;;;;;;;;;;;;;-73
2023/01/05 03:00:29;;;;;;;;;;;;;;;8.8;100;101668.6;;;;-73
2023/01/05 03:05:30;;;;;;;;;;;;;;;8.8;100;101673.9;;;;-74
2023/01/05 03:15:29;;;;;;;;;;;;;;;8.82;100;101663.9;;;;-72
2023/01/05 03:20:30;;;;;;;;;;;;;;;8.8;100;101666.8;;;;-72
2023/01/05 03:35:36;;;;;;;;;;;;;;;8.73;100;101676.3;;;;-73
2023/01/05 03:40:29;;;;;;;;;;;;;;;8.71;100;101672.1;;;;-73
2023/01/05 03:45:28;;;;;;;;;;;;;;;8.69;100;101679.9;;;;-74
2023/01/05 03:50:27;;;;;;;;;;;;;;;8.7;100;101670;;;;-76
2023/01/05 03:55:27;;;;;;;;;;;;;;;8.7;100;101688.8;;;;-74
2023/01/05 03:57:20;;;;;;;18.5;2.8;;;;;;;;;;;;;-74
2023/01/05 04:00:28;;;;;;;;;;;;;;;8.72;100;101691.2;;;;-72
2023/01/05 04:05:27;;;;;;;;;;;;;;;8.74;100;101689.8;;;;-73
2023/01/05 04:10:27;;;;;;;;;;;;;;;8.73;100;101690;;;;-73
2023/01/05 04:15:27;;;;;;;;;;;;;;;8.76;100;101695.3;;;;-72
2023/01/05 04:20:27;;;;;;;;;;;;;;;8.79;100;101693.2;;;;-74
2023/01/05 04:25:27;;;;;;;;;;;;;;;8.79;100;101708.4;;;;-73
2023/01/05 04:27:21;;;;;;;23;2.9;;;;;;;;;;;;;-74
2023/01/05 04:30:27;;;;;;;;;;;;;;;8.82;100;101708.9;;;;-73
2023/01/05 04:35:27;;;;;;;;;;;;;;;8.84;100;101724.4;;;;-73
2023/01/05 04:40:27;;;;;;;;;;;;;;;8.85;100;101724.2;;;;-73
2023/01/05 04:45:27;;;;;;;;;;;;;;;8.85;100;101727.2;;;;-74
2023/01/05 04:50:28;;;;;;;;;;;;;;;8.87;100;101724.5;;;;-74
2023/01/05 04:55:27;;;;;;;;;;;;;;;8.87;100;101724.9;;;;-73
2023/01/05 04:57:20;;;;;;;18.7;2.5;;;;;;;;;;;;;-74
2023/01/05 05:00:27;;;;;;;;;;;;;;;8.86;100;101724;;;;-73
2023/01/05 05:05:27;;;;;;;;;;;;;;;8.86;100;101733.4;;;;-73
2023/01/05 05:10:27;;;;;;;;;;;;;;;8.88;100;101744.9;;;;-73
2023/01/05 05:15:27;;;;;;;;;;;;;;;8.86;100;101746.3;;;;-73
2023/01/05 05:20:27;;;;;;;;;;;;;;;8.86;100;101746.9;;;;-73
2023/01/05 05:25:27;;;;;;;;;;;;;;;8.89;100;101755.2;;;;-75
2023/01/05 05:27:21;;;;;;;19;2.3;;;;;;;;;;;;;-72
2023/01/05 05:30:27;;;;;;;;;;;;;;;8.89;100;101773.4;;;;-73
2023/01/05 05:35:27;;;;;;;;;;;;;;;8.87;100;101778.6;;;;-73
2023/01/05 05:40:28;;;;;;;;;;;;;;;8.86;100;101774.7;;;;-72
2023/01/05 05:45:27;;;;;;;;;;;;;;;8.86;100;101786.1;;;;-72
2023/01/05 05:50:29;;;;;;;;;;;;;;;8.86;100;101781.3;;;;-74
2023/01/05 05:55:28;;;;;;;;;;;;;;;8.88;100;101781.9;;;;-73
2023/01/05 05:57:22;;;;;;;16.1;2.4;;;;;;;;;;;;;-73
2023/01/05 06:00:27;;;;;;;;;;;;;;;8.86;100;101787;;;;-73
2023/01/05 06:05:27;;;;;;;;;;;;;;;8.85;100;101795.7;;;;-73
2023/01/05 06:10:27;;;;;;;;;;;;;;;8.85;100;101803.2;;;;-73
2023/01/05 06:15:27;;;;;;;;;;;;;;;8.83;100;101812.2;;;;-73
2023/01/05 06:20:27;;;;;;;;;;;;;;;8.8;100;101824.2;;;;-73
2023/01/05 06:25:27;;;;;;;;;;;;;;;8.79;100;101827.5;;;;-73
2023/01/05 06:27:21;;;;;;;20.4;3.3;;;;;;;;;;;;;-72
2023/01/05 06:30:27;;;;;;;;;;;;;;;8.77;100;101832.1;;;;-73
2023/01/05 06:35:27;;;;;;;;;;;;;;;8.75;100;101842.6;;;;-74
2023/01/05 06:40:27;;;;;;;;;;;;;;;8.74;100;101842.1;;;;-74
2023/01/05 06:45:27;;;;;;;;;;;;;;;8.73;100;101843.8;;;;-72
2023/01/05 06:50:27;;;;;;;;;;;;;;;8.71;100;101848.5;;;;-74
2023/01/05 06:55:27;;;;;;;;;;;;;;;8.68;100;101858.1;;;;-73
2023/01/05 06:57:21;;;;;;;22.6;2.7;;;;;;;;;;;;;-73
2023/01/05 07:00:27;;;;;;;;;;;;;;;8.65;100;101869.5;;;;-73
2023/01/05 07:05:27;;;;;;;;;;;;;;;8.63;100;101872.3;;;;-73
2023/01/05 07:10:27;;;;;;;;;;;;;;;8.6;100;101872.6;;;;-73
2023/01/05 07:15:27;;;;;;;;;;;;;;;8.57;100;101873.8;;;;-72
2023/01/05 07:20:27;;;;;;;;;;;;;;;8.55;100;101883.7;;;;-72
2023/01/05 07:25:30;;;;;;;;;;;;;;;8.53;100;101889.3;;;;-72
2023/01/05 07:27:22;;;;;;;19.1;2.3;;;;;;;;;;;;;-73
2023/01/05 07:30:27;;;;;;;;;;;;;;;8.52;100;101887.1;;;;-73
2023/01/05 07:35:27;;;;;;;;;;;;;;;8.52;100;101885.8;;;;-73
2023/01/05 07:40:27;;;;;;;;;;;;;;;8.51;100;101879.6;;;;-74
2023/01/05 07:45:27;;;;;;;;;;;;;;;8.52;100;101884.9;;;;-77
2023/01/05 07:50:27;;;;;;;;;;;;;;;8.49;100;101900;;;;-75
2023/01/05 07:55:27;;;;;;;;;;;;;;;8.45;100;101910.4;;;;-76
2023/01/05 07:57:21;;;;;;;15;2.1;;;;;;;;;;;;;-75
2023/01/05 08:00:28;;;;;;;;;;;;;;;8.42;100;101917.1;;;;-77
2023/01/05 08:05:32;;;;;;;;;;;;;;;8.39;100;101931.7;;;;-76
2023/01/05 08:10:33;;;;;;;;;;;;;;;8.39;100;101939;;;;-75
2023/01/05 08:15:27;;;;;;;;;;;;;;;8.4;100;101947.5;;;;-76
2023/01/05 08:20:27;;;;;;;;;;;;;;;8.41;100;101950.5;;;;-75
2023/01/05 08:25:27;;;;;;;;;;;;;;;8.43;100;101953.3;;;;-76
2023/01/05 08:27:21;;;;;;;17.3;2.5;;;;;;;;;;;;;-76
2023/01/05 08:30:27;;;;;;;;;;;;;;;8.45;100;101963.2;;;;-77
2023/01/05 08:35:27;;;;;;;;;;;;;;;8.47;100;101974.9;;;;-76
2023/01/05 08:40:28;;;;;;;;;;;;;;;8.49;100;101987.9;;;;-76
2023/01/05 08:45:27;;;;;;;;;;;;;;;8.53;100;101991.5;;;;-76
2023/01/05 08:50:27;;;;;;;;;;;;;;;8.57;100;101998;;;;-76
2023/01/05 08:55:27;;;;;;;;;;;;;;;8.59;100;102004.6;;;;-76
2023/01/05 08:57:21;;;;;;;14.9;1.9;;;;;;;;;;;;;-76
2023/01/05 09:00:27;;;;;;;;;;;;;;;8.63;100;102004.3;;;;-76
2023/01/05 09:05:27;;;;;;;;;;;;;;;8.67;100;102006.2;;;;-77
2023/01/05 09:10:27;;;;;;;;;;;;;;;8.71;100;102016.5;;;;-76
2023/01/05 09:15:28;;;;;;;;;;;;;;;8.74;100;102022.9;;;;-77
2023/01/05 09:20:27;;;;;;;;;;;;;;;8.79;100;102021.7;;;;-77
2023/01/05 09:25:27;;;;;;;;;;;;;;;8.81;100;102020.7;;;;-77
2023/01/05 09:27:21;;;;;;;16;2.4;;;;;;;;;;;;;-75
2023/01/05 09:30:27;;;;;;;;;;;;;;;8.85;100;102036.7;;;;-75
2023/01/05 09:35:27;;;;;;;;;;;;;;;8.89;100;102040.5;;;;-76
2023/01/05 09:40:27;;;;;;;;;;;;;;;8.92;100;102043.3;;;;-76
2023/01/05 09:45:29;;;;;;;;;;;;;;;8.95;100;102046.7;;;;-77
2023/01/05 09:50:29;;;;;;;;;;;;;;;8.99;100;102054.2;;;;-76
2023/01/05 09:55:28;;;;;;;;;;;;;;;9.01;100;102067.7;;;;-76
2023/01/05 09:57:23;;;;;;;17;2.4;;;;;;;;;;;;;-77
2023/01/05 10:00:28;;;;;;;;;;;;;;;9.05;100;102067;;;;-76
2023/01/05 10:05:28;;;;;;;;;;;;;;;9.07;100;102066.4;;;;-76
2023/01/05 10:10:29;;;;;;;;;;;;;;;9.1;100;102077;;;;-76
2023/01/05 10:15:28;;;;;;;;;;;;;;;9.15;100;102088;;;;-76
2023/01/05 10:20:31;;;;;;;;;;;;;;;9.18;100;102084.7;;;;-72
2023/01/05 10:25:32;;;;;;;;;;;;;;;9.21;100;102077.7;;;;-72
2023/01/05 10:27:24;;;;;;;14.3;2;;;;;;;;;;;;;-73
2023/01/05 10:30:28;;;;;;;;;;;;;;;9.26;100;102073.7;;;;-73
2023/01/05 10:35:44;;;;;;;;;;;;;;;9.29;100;102071;;;;-74
2023/01/05 10:40:32;;;;;;;;;;;;;;;9.31;100;102077.7;;;;-74
2023/01/05 10:45:30;;;;;;;;;;;;;;;9.34;100;102074.2;;;;-72
2023/01/05 10:50:32;;;;;;;;;;;;;;;9.37;100;102077;;;;-73
2023/01/05 10:55:28;;;;;;;;;;;;;;;9.41;100;102079.7;;;;-74
2023/01/05 10:57:38;;;;;;;12.9;2.1;;;;;;;;;;;;;-73
2023/01/05 11:00:37;;;;;;;;;;;;;;;9.42;100;102079.2;;;;-72
2023/01/05 11:05:33;;;;;;;;;;;;;;;9.46;100;102076.3;;;;-74
2023/01/05 11:10:30;;;;;;;;;;;;;;;9.5;100;102079.8;;;;-73
2023/01/05 11:15:27;;;;;;;;;;;;;;;9.55;100;102076.3;;;;-74
2023/01/05 11:20:30;;;;;;;;;;;;;;;9.58;100;102075.7;;;;-74
2023/01/05 11:25:29;;;;;;;;;;;;;;;9.63;100;102074.9;;;;-74
2023/01/05 11:27:29;;;;;;;14.6;2.7;;;;;;;;;;;;;-73
2023/01/05 11:30:27;;;;;;;;;;;;;;;9.7;100;102076.3;;;;-74
2023/01/05 11:35:31;;;;;;;;;;;;;;;9.74;100;102076.9;;;;-74
2023/01/05 11:40:30;;;;;;;;;;;;;;;9.79;100;102075.7;;;;-74
2023/01/05 11:45:29;;;;;;;;;;;;;;;9.83;100;102081.8;;;;-74
2023/01/05 11:50:29;;;;;;;;;;;;;;;9.84;100;102080.3;;;;-72
2023/01/05 11:55:39;;;;;;;;;;;;;;;9.88;100;102074.8;;;;-74
2023/01/05 11:57:25;;;;;;;19.4;3;;;;;;;;;;;;;-73
2023/01/05 12:00:31;;;;;;;;;;;;;;;9.91;100;102068.7;;;;-73
2023/01/05 12:05:34;;;;;;;;;;;;;;;9.95;100;102070.6;;;;-73
2023/01/05 12:10:43;;;;;;;;;;;;;;;9.97;100;102072.5;;;;-72
2023/01/05 12:15:40;;;;;;;;;;;;;;;10;100;102068.7;;;;-74
2023/01/05 12:20:40;;;;;;;;;;;;;;;10.04;100;102062.9;;;;-72
2023/01/05 12:25:35;;;;;;;;;;;;;;;10.14;100;102059.2;;;;-73
2023/01/05 12:27:32;;;;;;;21.7;2.7;;;;;;;;;;;;;-73
2023/01/05 12:30:37;;;;;;;;;;;;;;;10.29;100;102055.3;;;;-73
2023/01/05 12:35:39;;;;;;;;;;;;;;;10.45;100;102057.1;;;;-73
2023/01/05 12:40:35;;;;;;;;;;;;;;;10.6;100;102056.9;;;;-73
2023/01/05 12:45:38;;;;;;;;;;;;;;;10.67;100;102053.5;;;;-73
2023/01/05 12:50:30;;;;;;;;;;;;;;;10.67;100;102051.1;;;;-73
2023/01/05 12:55:31;;;;;;;;;;;;;;;10.64;100;102049.5;;;;-74
2023/01/05 12:57:26;;;;;;;22.8;2.8;;;;;;;;;;;;;-74
2023/01/05 13:00:28;;;;;;;;;;;;;;;10.63;100;102060.7;;;;-74
2023/01/05 13:05:30;;;;;;;;;;;;;;;10.62;100;102055.8;;;;-74
2023/01/05 13:10:30;;;;;;;;;;;;;;;10.54;100;102054.8;;;;-73
2023/01/05 13:15:31;;;;;;;;;;;;;;;10.45;100;102055.8;;;;-73
2023/01/05 13:20:31;;;;;;;;;;;;;;;10.36;100;102056.3;;;;-74
2023/01/05 13:25:30;;;;;;;;;;;;;;;10.3;100;102060.8;;;;-74
2023/01/05 13:27:24;;;;;;;18.9;2.8;;;;;;;;;;;;;-74
2023/01/05 13:30:30;;;;;;;;;;;;;;;10.23;100;102062.3;;;;-74
2023/01/05 13:35:41;;;;;;;;;;;;;;;10.22;100;102061.9;;;;-74
2023/01/05 13:40:38;;;;;;;;;;;;;;;10.21;100;102058.6;;;;-73
2023/01/05 13:45:35;;;;;;;;;;;;;;;10.19;100;102068.4;;;;-73
2023/01/05 13:50:36;;;;;;;;;;;;;;;10.17;100;102061.9;;;;-73
2023/01/05 13:55:28;;;;;;;;;;;;;;;10.15;100;102056.4;;;;-73
2023/01/05 13:57:25;;;;;;;23.7;3.6;;;;;;;;;;;;;-73
2023/01/05 14:00:29;;;;;;;;;;;;;;;10.14;100;102051.7;;;;-73
2023/01/05 14:05:34;;;;;;;;;;;;;;;10.13;100;102051;;;;-72
2023/01/05 14:10:29;;;;;;;;;;;;;;;10.09;100;102040.2;;;;-75
2023/01/05 14:15:42;;;;;;;;;;;;;;;10.09;100;102037.3;;;;-73
2023/01/05 14:20:39;;;;;;;;;;;;;;;10.08;100;102035;;;;-77
2023/01/05 14:25:38;;;;;;;;;;;;;;;10.07;100;102028.6;;;;-75
2023/01/05 14:27:25;;;;;;;22.3;3;;;;;;;;;;;;;-77
2023/01/05 14:30:27;;;;;;;;;;;;;;;10.05;100;102030.2;;;;-76
2023/01/05 14:35:33;;;;;;;;;;;;;;;10.02;100;102024.7;;;;-76
2023/01/05 14:40:36;;;;;;;;;;;;;;;9.99;100;102028.8;;;;-77
2023/01/05 14:45:30;;;;;;;;;;;;;;;9.98;100;102025.9;;;;-76
2023/01/05 14:50:35;;;;;;;;;;;;;;;9.94;100;102031.3;;;;-76
2023/01/05 14:55:28;;;;;;;;;;;;;;;9.91;100;102031.7;;;;-76
2023/01/05 14:57:38;;;;;;;22.6;3.4;;;;;;;;;;;;;-77
2023/01/05 15:00:37;;;;;;;;;;;;;;;9.88;100;102035.4;;;;-76
2023/01/05 15:04:00;;;;;;;;;;;;;;;9.94;100;102034;;;;-75
2023/01/05 15:07:25;;;;;;;;;;;;;;;9.84;100;102034.6;;;;-77
2023/01/05 15:12:34;;;;;;;;;;;;;;;9.81;100;102030.6;;;;-76
2023/01/05 15:17:40;;;;;;;;;;;;;;;9.8;100;102035.7;;;;-73
2023/01/05 15:22:27;;;;;;;;;;;;;;;9.8;100;102033.6;;;;-73
2023/01/05 15:27:28;;;;;;;;;;;;;;;9.76;100;102028.9;;;;-74
2023/01/05 15:27:49;;;;;;;21.5;2.9;;;;;;;;;;;;;-74
2023/01/05 15:32:20;;;;;;;;;;;;;;;9.74;100;102032.1;;;;-74
2023/01/05 15:37:23;;;;;;;;;;;;;;;9.7;100;102023.7;;;;-74
2023/01/05 15:42:20;;;;;;;;;;;;;;;9.66;100;102025.1;;;;-73
2023/01/05 15:47:17;;;;;;;;;;;;;;;9.64;100;102018.1;;;;-73
2023/01/05 15:52:27;;;;;;;;;;;;;;;9.62;100;102011.6;;;;-73
2023/01/05 15:57:24;;;;;;;;;;;;;;;9.58;100;102008.3;;;;-73
2023/01/05 15:57:36;;;;;;;17.2;2.8;;;;;;;;;;;;;-73
2023/01/05 16:02:24;;;;;;;;;;;;;;;9.54;100;102008.4;;;;-74
2023/01/05 16:07:18;;;;;;;;;;;;;;;9.51;100;101999.8;;;;-74
2023/01/05 16:12:22;;;;;;;;;;;;;;;9.47;100;101991.3;;;;-73
2023/01/05 16:17:20;;;;;;;;;;;;;;;9.44;100;101991.3;;;;-72
2023/01/05 16:22:20;;;;;;;;;;;;;;;9.42;100;101990.8;;;;-73
2023/01/05 16:27:17;;;;;;;;;;;;;;;9.39;100;101989.3;;;;-74
2023/01/05 16:27:29;;;;;;;18.7;2.4;;;;;;;;;;;;;-74
2023/01/05 16:32:35;;;;;;;;;;;;;;;9.36;100;101979.1;;;;-74
2023/01/05 16:37:27;;;;;;;;;;;;;;;9.33;100;101973.4;;;;-74
2023/01/05 16:42:38;;;;;;;;;;;;;;;9.31;100;101979.8;;;;-75
2023/01/05 16:47:27;;;;;;;;;;;;;;;9.29;100;101980.9;;;;-76
2023/01/05 16:52:25;;;;;;;;;;;;;;;9.29;100;101976;;;;-76
2023/01/05 16:57:42;;;;;;;;;;;;;;;9.28;100;101973.7;;;;-77
2023/01/05 16:57:51;;;;;;;17.3;2.5;;;;;;;;;;;;;-77
2023/01/05 17:02:28;;;;;;;;;;;;;;;9.26;100;101963.6;;;;-76
2023/01/05 17:07:20;;;;;;;;;;;;;;;9.25;100;101963.2;;;;-77
2023/01/05 17:12:17;;;;;;;;;;;;;;;9.25;100;101958.6;;;;-77
2023/01/05 17:17:17;;;;;;;;;;;;;;;9.24;100;101959.6;;;;-78
2023/01/05 17:22:17;;;;;;;;;;;;;;;9.25;100;101951.5;;;;-76
2023/01/05 17:27:20;;;;;;;;;;;;;;;9.24;100;101946.4;;;;-78
2023/01/05 17:27:40;;;;;;;15.9;3.5;;;;;;;;;;;;;-78
2023/01/05 17:32:20;;;;;;;;;;;;;;;9.25;100;101941.9;;;;-77
2023/01/05 17:37:32;;;;;;;;;;;;;;;9.24;100;101936.7;;;;-76
2023/01/05 17:47:17;;;;;;;;;;;;;;;9.25;100;101925.9;;;;-77
2023/01/05 17:52:17;;;;;;;;;;;;;;;9.26;100;101921.9;;;;-76
2023/01/05 17:57:17;;;;;;;;;;;;;;;9.27;100;101912.1;;;;-77
2023/01/05 17:57:27;;;;;;;13.9;3.8;;;;;;;;;;;;;-76
2023/01/05 18:02:17;;;;;;;;;;;;;;;9.26;100;101909.4;;;;-77
2023/01/05 18:07:17;;;;;;;;;;;;;;;9.26;100;101904.1;;;;-77
2023/01/05 18:12:17;;;;;;;;;;;;;;;9.27;100;101901.1;;;;-77
2023/01/05 18:17:19;;;;;;;;;;;;;;;9.27;100;101899.4;;;;-77
2023/01/05 18:22:25;;;;;;;;;;;;;;;9.27;100;101892.8;;;;-77
2023/01/05 18:27:17;;;;;;;;;;;;;;;9.28;100;101886;;;;-77
2023/01/05 18:27:35;;;;;;;17;5.7;;;;;;;;;;;;;-77
2023/01/05 18:32:21;;;;;;;;;;;;;;;9.26;100;101881.9;;;;-75
2023/01/05 18:37:17;;;;;;;;;;;;;;;9.28;100;101878.7;;;;-75
2023/01/05 18:42:17;;;;;;;;;;;;;;;9.3;100;101874.8;;;;-75
2023/01/05 18:47:26;;;;;;;;;;;;;;;9.31;100;101871;;;;-73
2023/01/05 18:52:17;;;;;;;;;;;;;;;9.32;100;101869.1;;;;-74
2023/01/05 18:57:17;;;;;;;;;;;;;;;9.35;100;101873.2;;;;-74
2023/01/05 18:57:27;;;;;;;14.2;6.4;;;;;;;;;;;;;-74
2023/01/05 19:02:20;;;;;;;;;;;;;;;9.35;100;101872.2;;;;-74
2023/01/05 19:07:17;;;;;;;;;;;;;;;9.37;100;101866.6;;;;-74
2023/01/05 19:12:17;;;;;;;;;;;;;;;9.39;100;101868.2;;;;-73
2023/01/05 19:17:17;;;;;;;;;;;;;;;9.41;100;101873.5;;;;-75
2023/01/05 19:22:17;;;;;;;;;;;;;;;9.43;100;101871.1;;;;-75
2023/01/05 19:27:17;;;;;;;;;;;;;;;9.45;100;101871.9;;;;-75
2023/01/05 19:27:27;;;;;;;18.7;6.4;;;;;;;;;;;;;-75
2023/01/05 19:32:17;;;;;;;;;;;;;;;9.44;100;101866.5;;;;-74
2023/01/05 19:37:17;;;;;;;;;;;;;;;9.46;100;101867.3;;;;-75
2023/01/05 19:42:18;;;;;;;;;;;;;;;9.47;100;101870.6;;;;-74
2023/01/05 19:47:17;;;;;;;;;;;;;;;9.47;100;101853.7;;;;-73
2023/01/05 19:52:17;;;;;;;;;;;;;;;9.5;100;101842.9;;;;-75
2023/01/05 19:57:17;;;;;;;;;;;;;;;9.5;100;101841.5;;;;-74
2023/01/05 19:57:28;;;;;;;14.6;5.7;;;;;;;;;;;;;-75
2023/01/05 20:02:19;;;;;;;;;;;;;;;9.52;100;101838.7;;;;-73
2023/01/05 20:07:17;;;;;;;;;;;;;;;9.54;100;101839.3;;;;-74
2023/01/05 20:12:17;;;;;;;;;;;;;;;9.55;100;101838;;;;-78
2023/01/05 20:17:17;;;;;;;;;;;;;;;9.56;100;101829.2;;;;-77
2023/01/05 20:22:17;;;;;;;;;;;;;;;9.57;100;101829.8;;;;-77
2023/01/05 20:27:23;;;;;;;;;;;;;;;9.58;100;101825.3;;;;-77
2023/01/05 20:27:36;;;;;;;13.6;3.3;;;;;;;;;;;;;-77
2023/01/05 20:32:19;;;;;;;;;;;;;;;9.57;100;101818.6;;;;-74
2023/01/05 20:37:22;;;;;;;;;;;;;;;9.56;100;101823.6;;;;-74
2023/01/05 20:42:18;;;;;;;;;;;;;;;9.56;100;101823.9;;;;-74
2023/01/05 20:47:18;;;;;;;;;;;;;;;9.57;100;101826.6;;;;-72
2023/01/05 20:52:19;;;;;;;;;;;;;;;9.55;100;101826.1;;;;-73
2023/01/05 20:57:18;;;;;;;;;;;;;;;9.57;100;101820;;;;-74
2023/01/05 20:57:32;;;;;;;14.9;2.7;;;;;;;;;;;;;-74
2023/01/05 21:02:17;;;;;;;;;;;;;;;9.58;100;101818.6;;;;-74
2023/01/05 21:07:17;;;;;;;;;;;;;;;9.6;100;101819.8;;;;-75
2023/01/05 21:12:17;;;;;;;;;;;;;;;9.61;100;101814;;;;-73
2023/01/05 21:17:17;;;;;;;;;;;;;;;9.62;100;101823.9;;;;-75
2023/01/05 21:22:17;;;;;;;;;;;;;;;9.63;100;101817.3;;;;-74
2023/01/05 21:27:17;;;;;;;;;;;;;;;9.65;100;101814.4;;;;-74
2023/01/05 21:27:30;;;;;;;15.9;2.4;;;;;;;;;;;;;-74
2023/01/05 21:32:22;;;;;;;;;;;;;;;9.65;100;101809.6;;;;-73
2023/01/05 21:37:17;;;;;;;;;;;;;;;9.68;100;101800.7;;;;-74
2023/01/05 21:47:17;;;;;;;;;;;;;;;9.69;100;101805.6;;;;-74
2023/01/05 21:57:17;;;;;;;;;;;;;;;9.7;100;101790.6;;;;-74
2023/01/05 21:57:29;;;;;;;15.3;2.6;;;;;;;;;;;;;-74
2023/01/05 22:02:19;;;;;;;;;;;;;;;9.69;100;101783.6;;;;-74
2023/01/05 22:07:17;;;;;;;;;;;;;;;9.71;100;101778;;;;-74
2023/01/05 22:12:17;;;;;;;;;;;;;;;9.7;100;101772.3;;;;-74
2023/01/05 22:17:17;;;;;;;;;;;;;;;9.72;100;101777.5;;;;-73
2023/01/05 22:22:17;;;;;;;;;;;;;;;9.72;100;101779.7;;;;-73
2023/01/05 22:27:17;;;;;;;;;;;;;;;9.72;100;101768.2;;;;-74
2023/01/05 22:27:31;;;;;;;17.9;2.3;;;;;;;;;;;;;-74
2023/01/05 22:32:17;;;;;;;;;;;;;;;9.72;100;101761.6;;;;-74
2023/01/05 22:37:18;;;;;;;;;;;;;;;9.72;100;101752.6;;;;-74
2023/01/05 22:42:17;;;;;;;;;;;;;;;9.72;100;101760;;;;-74
2023/01/05 22:47:17;;;;;;;;;;;;;;;9.71;100;101743.2;;;;-73
2023/01/05 22:52:17;;;;;;;;;;;;;;;9.71;100;101757.6;;;;-74
2023/01/05 22:57:17;;;;;;;;;;;;;;;9.72;100;101768.7;;;;-73
2023/01/05 22:57:30;;;;;;;15.8;1.8;;;;;;;;;;;;;-74
2023/01/05 23:02:17;;;;;;;;;;;;;;;9.7;100;101766.2;;;;-73
2023/01/05 23:07:19;;;;;;;;;;;;;;;9.7;100;101762.6;;;;-74
2023/01/05 23:12:17;;;;;;;;;;;;;;;9.7;100;101754.2;;;;-73
2023/01/05 23:17:17;;;;;;;;;;;;;;;9.68;100;101737.1;;;;-74
2023/01/05 23:22:17;;;;;;;;;;;;;;;9.67;100;101735.8;;;;-74
2023/01/05 23:27:17;;;;;;;;;;;;;;;9.66;100;101735.4;;;;-75
2023/01/05 23:27:30;;;;;;;10;1.5;;;;;;;;;;;;;-75
2023/01/05 23:32:17;;;;;;;;;;;;;;;9.68;100;101731.3;;;;-74
2023/01/05 23:37:17;;;;;;;;;;;;;;;9.67;100;101719.2;;;;-74
